sensor_id;sensor_type;location;lat;lon;timestamp;temperature;humidity
12602;DHT22;30282;16.436;99.370;2022-12-18T00:02:16;22.30;99.90
12602;DHT22;30282;16.436;99.370;2022-12-18T00:04:45;22.20;99.90
12602;DHT22;30282;16.436;99.370;2022-12-18T00:07:14;22.20;99.90
12602;DHT22;30282;16.436;99.370;2022-12-18T00:09:43;22.20;99.90
12602;DHT22;30282;16.436;99.370;2022-12-18T00:12:12;22.10;99.90
12602;DHT22;30282;16.436;99.370;2022-12-18T00:14:41;22.10;99.90
12602;DHT22;30282;16.436;99.370;2022-12-18T00:17:10;22.00;99.90
12602;DHT22;30282;16.436;99.370;2022-12-18T00:19:41;22.00;99.90
12602;DHT22;30282;16.436;99.370;2022-12-18T00:22:10;22.00;99.90
12602;DHT22;30282;16.436;99.370;2022-12-18T00:24:39;22.00;99.90
12602;DHT22;30282;16.436;99.370;2022-12-18T00:27:09;22.00;99.90
12602;DHT22;30282;16.436;99.370;2022-12-18T00:29:38;22.00;99.90
12602;DHT22;30282;16.436;99.370;2022-12-18T00:32:08;22.00;99.90
12602;DHT22;30282;16.436;99.370;2022-12-18T00:34:37;22.00;99.90
12602;DHT22;30282;16.436;99.370;2022-12-18T00:37:08;22.00;99.90
12602;DHT22;30282;16.436;99.370;2022-12-18T00:39:37;22.00;99.90
12602;DHT22;30282;16.436;99.370;2022-12-18T00:42:07;22.10;99.90
12602;DHT22;30282;16.436;99.370;2022-12-18T00:44:53;22.10;99.90
12602;DHT22;30282;16.436;99.370;2022-12-18T00:47:22;22.10;99.90
12602;DHT22;30282;16.436;99.370;2022-12-18T00:49:51;22.10;99.90
12602;DHT22;30282;16.436;99.370;2022-12-18T00:52:22;22.10;99.90
12602;DHT22;30282;16.436;99.370;2022-12-18T00:54:52;22.20;99.90
12602;DHT22;30282;16.436;99.370;2022-12-18T00:57:21;22.20;99.90
12602;DHT22;30282;16.436;99.370;2022-12-18T00:59:50;22.20;99.90
12602;DHT22;30282;16.436;99.370;2022-12-18T01:02:21;22.20;99.90
12602;DHT22;30282;16.436;99.370;2022-12-18T01:04:50;22.20;99.90
12602;DHT22;30282;16.436;99.370;2022-12-18T01:07:21;22.20;99.90
12602;DHT22;30282;16.436;99.370;2022-12-18T01:09:51;22.20;99.90
12602;DHT22;30282;16.436;99.370;2022-12-18T01:12:20;22.20;99.90
12602;DHT22;30282;16.436;99.370;2022-12-18T01:14:49;22.20;99.90
12602;DHT22;30282;16.436;99.370;2022-12-18T01:17:18;22.10;99.90
12602;DHT22;30282;16.436;99.370;2022-12-18T01:19:47;22.10;99.90
12602;DHT22;30282;16.436;99.370;2022-12-18T01:22:16;22.10;99.90
12602;DHT22;30282;16.436;99.370;2022-12-18T01:24:47;22.10;99.90
12602;DHT22;30282;16.436;99.370;2022-12-18T01:27:16;22.10;99.90
12602;DHT22;30282;16.436;99.370;2022-12-18T01:29:45;22.10;99.90
12602;DHT22;30282;16.436;99.370;2022-12-18T01:32:15;22.10;99.90
12602;DHT22;30282;16.436;99.370;2022-12-18T01:34:44;22.10;99.90
12602;DHT22;30282;16.436;99.370;2022-12-18T01:37:13;22.10;99.90
12602;DHT22;30282;16.436;99.370;2022-12-18T01:39:42;22.10;99.90
12602;DHT22;30282;16.436;99.370;2022-12-18T01:42:14;22.10;99.90
12602;DHT22;30282;16.436;99.370;2022-12-18T01:45:05;22.10;99.90
12602;DHT22;30282;16.436;99.370;2022-12-18T01:47:38;22.10;99.90
12602;DHT22;30282;16.436;99.370;2022-12-18T01:50:10;22.20;99.90
12602;DHT22;30282;16.436;99.370;2022-12-18T01:52:44;22.20;99.90
12602;DHT22;30282;16.436;99.370;2022-12-18T01:55:20;22.20;99.90
12602;DHT22;30282;16.436;99.370;2022-12-18T01:57:55;22.20;99.90
12602;DHT22;30282;16.436;99.370;2022-12-18T02:00:26;22.20;99.90
12602;DHT22;30282;16.436;99.370;2022-12-18T02:02:56;22.20;99.90
12602;DHT22;30282;16.436;99.370;2022-12-18T02:05:33;22.20;99.90
12602;DHT22;30282;16.436;99.370;2022-12-18T02:08:10;22.20;99.90
12602;DHT22;30282;16.436;99.370;2022-12-18T02:10:48;22.20;99.90
12602;DHT22;30282;16.436;99.370;2022-12-18T02:13:27;22.30;99.90
12602;DHT22;30282;16.436;99.370;2022-12-18T02:16:07;22.40;99.90
12602;DHT22;30282;16.436;99.370;2022-12-18T02:18:41;22.50;99.90
12602;DHT22;30282;16.436;99.370;2022-12-18T02:21:20;22.50;99.90
12602;DHT22;30282;16.436;99.370;2022-12-18T02:23:59;22.50;99.90
12602;DHT22;30282;16.436;99.370;2022-12-18T02:26:36;22.50;99.90
12602;DHT22;30282;16.436;99.370;2022-12-18T02:29:10;22.60;99.90
12602;DHT22;30282;16.436;99.370;2022-12-18T02:31:44;22.60;99.90
12602;DHT22;30282;16.436;99.370;2022-12-18T02:34:14;22.60;99.90
12602;DHT22;30282;16.436;99.370;2022-12-18T02:36:44;22.70;99.90
12602;DHT22;30282;16.436;99.370;2022-12-18T02:39:16;22.70;99.90
12602;DHT22;30282;16.436;99.370;2022-12-18T02:41:48;22.70;99.90
12602;DHT22;30282;16.436;99.370;2022-12-18T02:44:18;22.70;99.90
12602;DHT22;30282;16.436;99.370;2022-12-18T02:46:50;22.60;99.90
12602;DHT22;30282;16.436;99.370;2022-12-18T02:49:31;22.50;99.90
12602;DHT22;30282;16.436;99.370;2022-12-18T02:52:07;22.50;99.90
12602;DHT22;30282;16.436;99.370;2022-12-18T02:54:49;22.50;99.90
12602;DHT22;30282;16.436;99.370;2022-12-18T02:57:32;22.50;99.90
12602;DHT22;30282;16.436;99.370;2022-12-18T03:00:06;22.60;99.90
12602;DHT22;30282;16.436;99.370;2022-12-18T03:02:40;22.60;99.90
12602;DHT22;30282;16.436;99.370;2022-12-18T03:05:15;22.60;99.90
12602;DHT22;30282;16.436;99.370;2022-12-18T03:07:49;22.70;99.90
12602;DHT22;30282;16.436;99.370;2022-12-18T03:10:21;22.80;99.90
12602;DHT22;30282;16.436;99.370;2022-12-18T03:12:59;22.80;99.90
12602;DHT22;30282;16.436;99.370;2022-12-18T03:15:34;22.80;99.90
12602;DHT22;30282;16.436;99.370;2022-12-18T03:18:06;22.80;99.90
12602;DHT22;30282;16.436;99.370;2022-12-18T03:20:39;22.80;99.90
12602;DHT22;30282;16.436;99.370;2022-12-18T03:23:13;22.80;99.90
12602;DHT22;30282;16.436;99.370;2022-12-18T03:25:45;22.80;99.90
12602;DHT22;30282;16.436;99.370;2022-12-18T03:28:20;22.80;99.90
12602;DHT22;30282;16.436;99.370;2022-12-18T03:30:52;22.80;99.90
12602;DHT22;30282;16.436;99.370;2022-12-18T03:33:26;22.80;99.90
12602;DHT22;30282;16.436;99.370;2022-12-18T03:35:56;22.90;99.90
12602;DHT22;30282;16.436;99.370;2022-12-18T03:38:25;22.90;99.90
12602;DHT22;30282;16.436;99.370;2022-12-18T03:41:01;22.90;99.90
12602;DHT22;30282;16.436;99.370;2022-12-18T03:43:39;23.00;99.90
12602;DHT22;30282;16.436;99.370;2022-12-18T03:46:15;23.10;99.90
12602;DHT22;30282;16.436;99.370;2022-12-18T03:48:51;23.30;99.90
12602;DHT22;30282;16.436;99.370;2022-12-18T03:51:26;23.50;99.90
12602;DHT22;30282;16.436;99.370;2022-12-18T03:53:58;23.60;99.90
12602;DHT22;30282;16.436;99.370;2022-12-18T03:56:30;23.80;99.90
12602;DHT22;30282;16.436;99.370;2022-12-18T03:59:03;23.90;99.90
12602;DHT22;30282;16.436;99.370;2022-12-18T04:01:37;23.90;99.90
12602;DHT22;30282;16.436;99.370;2022-12-18T04:04:08;23.90;99.90
12602;DHT22;30282;16.436;99.370;2022-12-18T04:06:39;24.00;99.90
12602;DHT22;30282;16.436;99.370;2022-12-18T04:09:09;24.00;99.90
12602;DHT22;30282;16.436;99.370;2022-12-18T04:11:42;24.10;99.90
12602;DHT22;30282;16.436;99.370;2022-12-18T04:14:13;24.10;99.90
12602;DHT22;30282;16.436;99.370;2022-12-18T04:16:42;24.10;99.90
12602;DHT22;30282;16.436;99.370;2022-12-18T04:19:11;24.00;99.90
12602;DHT22;30282;16.436;99.370;2022-12-18T04:21:41;24.00;99.90
12602;DHT22;30282;16.436;99.370;2022-12-18T04:24:10;24.10;99.90
12602;DHT22;30282;16.436;99.370;2022-12-18T04:26:39;24.20;99.90
12602;DHT22;30282;16.436;99.370;2022-12-18T04:29:09;24.10;99.90
12602;DHT22;30282;16.436;99.370;2022-12-18T04:31:40;24.20;99.90
12602;DHT22;30282;16.436;99.370;2022-12-18T04:34:09;24.30;99.90
12602;DHT22;30282;16.436;99.370;2022-12-18T04:36:38;24.30;99.90
12602;DHT22;30282;16.436;99.370;2022-12-18T04:39:07;24.40;99.90
12602;DHT22;30282;16.436;99.370;2022-12-18T04:41:37;24.50;99.90
12602;DHT22;30282;16.436;99.370;2022-12-18T04:44:10;24.60;99.90
12602;DHT22;30282;16.436;99.370;2022-12-18T04:46:41;24.60;99.90
12602;DHT22;30282;16.436;99.370;2022-12-18T04:49:10;24.60;99.90
12602;DHT22;30282;16.436;99.370;2022-12-18T04:51:39;24.50;99.90
12602;DHT22;30282;16.436;99.370;2022-12-18T04:54:09;24.60;99.90
12602;DHT22;30282;16.436;99.370;2022-12-18T04:56:38;24.70;99.90
12602;DHT22;30282;16.436;99.370;2022-12-18T04:59:07;24.80;99.90
12602;DHT22;30282;16.436;99.370;2022-12-18T05:01:36;25.00;99.90
12602;DHT22;30282;16.436;99.370;2022-12-18T05:04:07;25.00;99.90
12602;DHT22;30282;16.436;99.370;2022-12-18T05:06:36;25.00;99.90
12602;DHT22;30282;16.436;99.370;2022-12-18T05:09:05;25.10;99.90
12602;DHT22;30282;16.436;99.370;2022-12-18T05:11:37;25.30;99.90
12602;DHT22;30282;16.436;99.370;2022-12-18T05:14:07;25.40;99.90
12602;DHT22;30282;16.436;99.370;2022-12-18T05:16:36;25.60;99.90
12602;DHT22;30282;16.436;99.370;2022-12-18T05:19:07;25.70;99.90
12602;DHT22;30282;16.436;99.370;2022-12-18T05:21:36;25.70;99.90
12602;DHT22;30282;16.436;99.370;2022-12-18T05:24:05;25.60;99.90
12602;DHT22;30282;16.436;99.370;2022-12-18T05:26:35;25.70;99.90
12602;DHT22;30282;16.436;99.370;2022-12-18T05:29:04;25.70;99.90
12602;DHT22;30282;16.436;99.370;2022-12-18T05:31:33;25.80;99.90
12602;DHT22;30282;16.436;99.370;2022-12-18T05:34:02;25.90;99.90
12602;DHT22;30282;16.436;99.370;2022-12-18T05:36:34;26.00;99.90
12602;DHT22;30282;16.436;99.370;2022-12-18T05:39:05;26.00;99.90
12602;DHT22;30282;16.436;99.370;2022-12-18T05:41:34;26.00;99.90
12602;DHT22;30282;16.436;99.370;2022-12-18T05:44:03;26.00;99.90
12602;DHT22;30282;16.436;99.370;2022-12-18T05:46:33;26.10;99.90
12602;DHT22;30282;16.436;99.370;2022-12-18T05:49:02;26.10;99.90
12602;DHT22;30282;16.436;99.370;2022-12-18T05:51:33;26.20;99.90
12602;DHT22;30282;16.436;99.370;2022-12-18T05:54:02;26.20;99.90
12602;DHT22;30282;16.436;99.370;2022-12-18T05:56:31;26.30;99.90
12602;DHT22;30282;16.436;99.370;2022-12-18T05:59:00;26.40;99.90
12602;DHT22;30282;16.436;99.370;2022-12-18T06:01:29;26.40;99.90
12602;DHT22;30282;16.436;99.370;2022-12-18T06:03:59;26.50;99.90
12602;DHT22;30282;16.436;99.370;2022-12-18T06:06:28;26.50;99.90
12602;DHT22;30282;16.436;99.370;2022-12-18T06:08:59;26.60;99.90
12602;DHT22;30282;16.436;99.370;2022-12-18T06:11:29;26.60;99.90
12602;DHT22;30282;16.436;99.370;2022-12-18T06:13:58;26.60;99.90
12602;DHT22;30282;16.436;99.370;2022-12-18T06:16:28;26.50;99.90
12602;DHT22;30282;16.436;99.370;2022-12-18T06:18:57;26.40;99.90
12602;DHT22;30282;16.436;99.370;2022-12-18T06:21:26;26.40;99.90
12602;DHT22;30282;16.436;99.370;2022-12-18T06:23:56;26.50;99.90
12602;DHT22;30282;16.436;99.370;2022-12-18T06:26:26;26.40;99.90
12602;DHT22;30282;16.436;99.370;2022-12-18T06:28:56;26.40;99.90
12602;DHT22;30282;16.436;99.370;2022-12-18T06:31:25;26.40;99.90
12602;DHT22;30282;16.436;99.370;2022-12-18T06:33:54;26.40;99.90
12602;DHT22;30282;16.436;99.370;2022-12-18T06:36:23;26.30;99.90
12602;DHT22;30282;16.436;99.370;2022-12-18T06:38:52;26.30;99.90
12602;DHT22;30282;16.436;99.370;2022-12-18T06:41:22;26.40;99.90
12602;DHT22;30282;16.436;99.370;2022-12-18T06:43:52;26.30;99.90
12602;DHT22;30282;16.436;99.370;2022-12-18T06:46:21;26.20;99.90
12602;DHT22;30282;16.436;99.370;2022-12-18T06:48:51;26.20;99.90
12602;DHT22;30282;16.436;99.370;2022-12-18T06:51:21;26.10;99.90
12602;DHT22;30282;16.436;99.370;2022-12-18T06:53:50;26.20;99.90
12602;DHT22;30282;16.436;99.370;2022-12-18T06:56:19;26.30;99.90
12602;DHT22;30282;16.436;99.370;2022-12-18T06:58:48;26.30;99.90
12602;DHT22;30282;16.436;99.370;2022-12-18T07:01:19;26.50;99.90
12602;DHT22;30282;16.436;99.370;2022-12-18T07:03:52;26.40;99.90
12602;DHT22;30282;16.436;99.370;2022-12-18T07:06:24;26.40;99.90
12602;DHT22;30282;16.436;99.370;2022-12-18T07:08:55;26.30;99.90
12602;DHT22;30282;16.436;99.370;2022-12-18T07:11:24;26.20;99.90
12602;DHT22;30282;16.436;99.370;2022-12-18T07:13:54;26.10;99.90
12602;DHT22;30282;16.436;99.370;2022-12-18T07:16:24;26.20;99.90
12602;DHT22;30282;16.436;99.370;2022-12-18T07:18:55;26.30;99.90
12602;DHT22;30282;16.436;99.370;2022-12-18T07:21:25;26.30;99.90
12602;DHT22;30282;16.436;99.370;2022-12-18T07:23:54;26.10;99.90
12602;DHT22;30282;16.436;99.370;2022-12-18T07:26:23;25.90;99.90
12602;DHT22;30282;16.436;99.370;2022-12-18T07:28:55;25.80;99.90
12602;DHT22;30282;16.436;99.370;2022-12-18T07:31:27;25.80;99.90
12602;DHT22;30282;16.436;99.370;2022-12-18T07:33:56;26.00;99.90
12602;DHT22;30282;16.436;99.370;2022-12-18T07:36:26;26.00;99.90
12602;DHT22;30282;16.436;99.370;2022-12-18T07:38:55;26.10;99.90
12602;DHT22;30282;16.436;99.370;2022-12-18T07:41:24;26.20;99.90
12602;DHT22;30282;16.436;99.370;2022-12-18T07:43:53;26.30;99.90
12602;DHT22;30282;16.436;99.370;2022-12-18T07:46:23;26.30;99.90
12602;DHT22;30282;16.436;99.370;2022-12-18T07:48:54;26.30;99.90
12602;DHT22;30282;16.436;99.370;2022-12-18T07:51:23;26.30;99.90
12602;DHT22;30282;16.436;99.370;2022-12-18T07:53:52;26.30;99.90
12602;DHT22;30282;16.436;99.370;2022-12-18T07:56:21;26.20;99.90
12602;DHT22;30282;16.436;99.370;2022-12-18T07:58:50;26.20;99.90
12602;DHT22;30282;16.436;99.370;2022-12-18T08:01:19;26.20;99.90
12602;DHT22;30282;16.436;99.370;2022-12-18T08:03:49;26.30;99.90
12602;DHT22;30282;16.436;99.370;2022-12-18T08:06:20;26.30;99.90
12602;DHT22;30282;16.436;99.370;2022-12-18T08:08:49;26.40;99.90
12602;DHT22;30282;16.436;99.370;2022-12-18T08:11:19;26.40;99.90
12602;DHT22;30282;16.436;99.370;2022-12-18T08:13:48;26.40;99.90
12602;DHT22;30282;16.436;99.370;2022-12-18T08:16:18;26.50;99.90
12602;DHT22;30282;16.436;99.370;2022-12-18T08:18:47;26.60;99.90
12602;DHT22;30282;16.436;99.370;2022-12-18T08:21:19;26.50;99.90
12602;DHT22;30282;16.436;99.370;2022-12-18T08:23:50;26.50;99.90
12602;DHT22;30282;16.436;99.370;2022-12-18T08:26:20;26.50;99.90
12602;DHT22;30282;16.436;99.370;2022-12-18T08:28:50;26.40;99.90
12602;DHT22;30282;16.436;99.370;2022-12-18T08:31:19;26.40;99.90
12602;DHT22;30282;16.436;99.370;2022-12-18T08:33:49;26.30;99.90
12602;DHT22;30282;16.436;99.370;2022-12-18T08:36:21;26.30;99.90
12602;DHT22;30282;16.436;99.370;2022-12-18T08:38:50;26.30;99.90
12602;DHT22;30282;16.436;99.370;2022-12-18T08:41:19;26.40;99.90
12602;DHT22;30282;16.436;99.370;2022-12-18T08:43:49;26.40;99.90
12602;DHT22;30282;16.436;99.370;2022-12-18T08:46:36;26.30;99.90
12602;DHT22;30282;16.436;99.370;2022-12-18T08:49:06;26.30;99.90
12602;DHT22;30282;16.436;99.370;2022-12-18T08:51:37;26.20;99.90
12602;DHT22;30282;16.436;99.370;2022-12-18T08:54:07;26.20;99.90
12602;DHT22;30282;16.436;99.370;2022-12-18T08:56:36;26.20;99.90
12602;DHT22;30282;16.436;99.370;2022-12-18T08:59:05;26.30;99.90
12602;DHT22;30282;16.436;99.370;2022-12-18T09:01:34;26.20;99.90
12602;DHT22;30282;16.436;99.370;2022-12-18T09:04:03;26.20;99.90
12602;DHT22;30282;16.436;99.370;2022-12-18T09:06:32;26.10;99.90
12602;DHT22;30282;16.436;99.370;2022-12-18T09:09:04;26.10;99.90
12602;DHT22;30282;16.436;99.370;2022-12-18T09:11:33;26.10;99.90
12602;DHT22;30282;16.436;99.370;2022-12-18T09:14:03;26.00;99.90
12602;DHT22;30282;16.436;99.370;2022-12-18T09:16:32;26.00;99.90
12602;DHT22;30282;16.436;99.370;2022-12-18T09:19:03;26.00;99.90
12602;DHT22;30282;16.436;99.370;2022-12-18T09:21:33;26.00;99.90
12602;DHT22;30282;16.436;99.370;2022-12-18T09:24:05;26.10;99.90
12602;DHT22;30282;16.436;99.370;2022-12-18T09:26:34;26.10;99.90
12602;DHT22;30282;16.436;99.370;2022-12-18T09:29:04;26.00;99.90
12602;DHT22;30282;16.436;99.370;2022-12-18T09:31:36;26.00;99.90
12602;DHT22;30282;16.436;99.370;2022-12-18T09:34:06;26.00;99.90
12602;DHT22;30282;16.436;99.370;2022-12-18T09:36:35;26.00;99.90
12602;DHT22;30282;16.436;99.370;2022-12-18T09:39:06;26.00;99.90
12602;DHT22;30282;16.436;99.370;2022-12-18T09:41:44;26.00;99.90
12602;DHT22;30282;16.436;99.370;2022-12-18T09:44:22;25.90;99.90
12602;DHT22;30282;16.436;99.370;2022-12-18T09:47:00;25.90;99.90
12602;DHT22;30282;16.436;99.370;2022-12-18T09:49:36;25.80;99.90
12602;DHT22;30282;16.436;99.370;2022-12-18T09:52:10;25.70;99.90
12602;DHT22;30282;16.436;99.370;2022-12-18T09:54:44;25.70;99.90
12602;DHT22;30282;16.436;99.370;2022-12-18T09:57:17;25.70;99.90
12602;DHT22;30282;16.436;99.370;2022-12-18T09:59:52;25.70;99.90
12602;DHT22;30282;16.436;99.370;2022-12-18T10:02:24;25.60;99.90
12602;DHT22;30282;16.436;99.370;2022-12-18T10:05:05;25.60;99.90
12602;DHT22;30282;16.436;99.370;2022-12-18T10:07:49;25.60;99.90
12602;DHT22;30282;16.436;99.370;2022-12-18T10:10:35;25.60;99.90
12602;DHT22;30282;16.436;99.370;2022-12-18T10:13:14;25.60;99.90
12602;DHT22;30282;16.436;99.370;2022-12-18T10:15:59;25.70;99.90
12602;DHT22;30282;16.436;99.370;2022-12-18T10:18:52;25.70;99.90
12602;DHT22;30282;16.436;99.370;2022-12-18T10:21:25;25.70;99.90
12602;DHT22;30282;16.436;99.370;2022-12-18T10:24:03;25.60;99.90
12602;DHT22;30282;16.436;99.370;2022-12-18T10:26:41;25.70;99.90
12602;DHT22;30282;16.436;99.370;2022-12-18T10:29:13;25.60;99.90
12602;DHT22;30282;16.436;99.370;2022-12-18T10:31:43;25.60;99.90
12602;DHT22;30282;16.436;99.370;2022-12-18T10:34:12;25.60;99.90
12602;DHT22;30282;16.436;99.370;2022-12-18T10:36:42;25.50;99.90
12602;DHT22;30282;16.436;99.370;2022-12-18T10:39:18;25.60;99.90
12602;DHT22;30282;16.436;99.370;2022-12-18T10:41:50;25.50;99.90
12602;DHT22;30282;16.436;99.370;2022-12-18T10:44:21;25.50;99.90
12602;DHT22;30282;16.436;99.370;2022-12-18T10:46:54;25.60;99.90
12602;DHT22;30282;16.436;99.370;2022-12-18T10:49:26;25.50;99.90
12602;DHT22;30282;16.436;99.370;2022-12-18T10:52:07;25.50;99.90
12602;DHT22;30282;16.436;99.370;2022-12-18T10:54:37;25.40;99.90
12602;DHT22;30282;16.436;99.370;2022-12-18T10:57:28;25.40;99.90
12602;DHT22;30282;16.436;99.370;2022-12-18T11:00:00;25.10;99.90
12602;DHT22;30282;16.436;99.370;2022-12-18T11:02:37;24.90;99.90
12602;DHT22;30282;16.436;99.370;2022-12-18T11:05:24;24.90;99.90
12602;DHT22;30282;16.436;99.370;2022-12-18T11:07:54;24.80;99.90
12602;DHT22;30282;16.436;99.370;2022-12-18T11:10:26;24.80;99.90
12602;DHT22;30282;16.436;99.370;2022-12-18T11:13:10;24.80;99.90
12602;DHT22;30282;16.436;99.370;2022-12-18T11:15:41;24.70;99.90
12602;DHT22;30282;16.436;99.370;2022-12-18T11:18:19;24.70;99.90
12602;DHT22;30282;16.436;99.370;2022-12-18T11:20:53;24.70;99.90
12602;DHT22;30282;16.436;99.370;2022-12-18T11:23:22;24.70;99.90
12602;DHT22;30282;16.436;99.370;2022-12-18T11:25:54;24.60;99.90
12602;DHT22;30282;16.436;99.370;2022-12-18T11:28:35;24.60;99.90
12602;DHT22;30282;16.436;99.370;2022-12-18T11:31:23;24.50;99.90
12602;DHT22;30282;16.436;99.370;2022-12-18T11:34:04;24.50;99.90
12602;DHT22;30282;16.436;99.370;2022-12-18T11:36:38;24.40;99.90
12602;DHT22;30282;16.436;99.370;2022-12-18T11:39:14;24.40;99.90
12602;DHT22;30282;16.436;99.370;2022-12-18T11:41:52;24.40;99.90
12602;DHT22;30282;16.436;99.370;2022-12-18T11:44:45;24.40;99.90
12602;DHT22;30282;16.436;99.370;2022-12-18T11:47:23;24.40;99.90
12602;DHT22;30282;16.436;99.370;2022-12-18T11:49:56;24.40;99.90
12602;DHT22;30282;16.436;99.370;2022-12-18T11:52:33;24.40;99.90
12602;DHT22;30282;16.436;99.370;2022-12-18T11:55:11;24.40;99.90
12602;DHT22;30282;16.436;99.370;2022-12-18T11:57:48;24.40;99.90
12602;DHT22;30282;16.436;99.370;2022-12-18T12:00:23;24.40;99.90
12602;DHT22;30282;16.436;99.370;2022-12-18T12:03:14;24.30;99.90
12602;DHT22;30282;16.436;99.370;2022-12-18T12:06:01;24.20;99.90
12602;DHT22;30282;16.436;99.370;2022-12-18T12:08:44;24.10;99.90
12602;DHT22;30282;16.436;99.370;2022-12-18T12:11:22;24.00;99.90
12602;DHT22;30282;16.436;99.370;2022-12-18T12:16:55;23.90;99.90
12602;DHT22;30282;16.436;99.370;2022-12-18T12:19:43;23.70;99.90
12602;DHT22;30282;16.436;99.370;2022-12-18T12:22:22;23.50;99.90
12602;DHT22;30282;16.436;99.370;2022-12-18T12:25:11;23.40;99.90
12602;DHT22;30282;16.436;99.370;2022-12-18T12:27:48;23.40;99.90
12602;DHT22;30282;16.436;99.370;2022-12-18T12:30:21;23.30;99.90
12602;DHT22;30282;16.436;99.370;2022-12-18T12:33:07;23.20;99.90
12602;DHT22;30282;16.436;99.370;2022-12-18T12:35:47;23.00;99.90
12602;DHT22;30282;16.436;99.370;2022-12-18T12:38:21;23.00;99.90
12602;DHT22;30282;16.436;99.370;2022-12-18T12:40:56;23.00;99.90
12602;DHT22;30282;16.436;99.370;2022-12-18T12:43:35;23.00;99.90
12602;DHT22;30282;16.436;99.370;2022-12-18T12:46:06;23.00;99.90
12602;DHT22;30282;16.436;99.370;2022-12-18T12:48:40;23.10;99.90
12602;DHT22;30282;16.436;99.370;2022-12-18T12:51:15;23.20;99.90
12602;DHT22;30282;16.436;99.370;2022-12-18T12:53:45;23.20;99.90
12602;DHT22;30282;16.436;99.370;2022-12-18T12:56:15;23.10;99.90
12602;DHT22;30282;16.436;99.370;2022-12-18T12:58:54;23.00;99.90
12602;DHT22;30282;16.436;99.370;2022-12-18T13:01:31;23.00;99.90
12602;DHT22;30282;16.436;99.370;2022-12-18T13:04:12;23.00;99.90
12602;DHT22;30282;16.436;99.370;2022-12-18T13:06:51;22.90;99.90
12602;DHT22;30282;16.436;99.370;2022-12-18T13:09:23;22.90;99.90
12602;DHT22;30282;16.436;99.370;2022-12-18T13:11:52;22.80;99.90
12602;DHT22;30282;16.436;99.370;2022-12-18T13:14:39;22.80;99.90
12602;DHT22;30282;16.436;99.370;2022-12-18T13:17:16;22.80;99.90
12602;DHT22;30282;16.436;99.370;2022-12-18T13:19:51;22.60;99.90
12602;DHT22;30282;16.436;99.370;2022-12-18T13:22:23;22.40;99.90
12602;DHT22;30282;16.436;99.370;2022-12-18T13:24:52;22.50;99.90
12602;DHT22;30282;16.436;99.370;2022-12-18T13:27:55;22.50;99.90
12602;DHT22;30282;16.436;99.370;2022-12-18T13:30:49;22.50;99.90
12602;DHT22;30282;16.436;99.370;2022-12-18T13:33:39;22.50;99.90
12602;DHT22;30282;16.436;99.370;2022-12-18T13:36:28;22.50;99.90
12602;DHT22;30282;16.436;99.370;2022-12-18T13:42:36;22.60;99.90
12602;DHT22;30282;16.436;99.370;2022-12-18T13:46:02;22.50;99.90
12602;DHT22;30282;16.436;99.370;2022-12-18T13:48:34;22.60;99.90
12602;DHT22;30282;16.436;99.370;2022-12-18T13:51:06;22.70;99.90
12602;DHT22;30282;16.436;99.370;2022-12-18T13:53:42;22.70;99.90
12602;DHT22;30282;16.436;99.370;2022-12-18T13:56:17;22.70;99.90
12602;DHT22;30282;16.436;99.370;2022-12-18T13:58:46;22.70;99.90
12602;DHT22;30282;16.436;99.370;2022-12-18T14:01:22;22.70;99.90
12602;DHT22;30282;16.436;99.370;2022-12-18T14:04:09;22.80;99.90
12602;DHT22;30282;16.436;99.370;2022-12-18T14:06:39;22.80;99.90
12602;DHT22;30282;16.436;99.370;2022-12-18T14:09:14;22.80;99.90
12602;DHT22;30282;16.436;99.370;2022-12-18T14:11:50;22.80;99.90
12602;DHT22;30282;16.436;99.370;2022-12-18T14:14:47;22.90;99.90
12602;DHT22;30282;16.436;99.370;2022-12-18T14:17:16;22.80;99.90
12602;DHT22;30282;16.436;99.370;2022-12-18T14:19:47;22.80;99.90
12602;DHT22;30282;16.436;99.370;2022-12-18T14:22:19;22.70;99.90
12602;DHT22;30282;16.436;99.370;2022-12-18T14:25:10;22.70;99.90
12602;DHT22;30282;16.436;99.370;2022-12-18T14:27:44;22.70;99.90
12602;DHT22;30282;16.436;99.370;2022-12-18T14:30:35;22.80;99.90
12602;DHT22;30282;16.436;99.370;2022-12-18T14:33:08;22.80;99.90
12602;DHT22;30282;16.436;99.370;2022-12-18T14:35:39;22.80;99.90
12602;DHT22;30282;16.436;99.370;2022-12-18T14:38:24;22.80;99.90
12602;DHT22;30282;16.436;99.370;2022-12-18T14:40:56;22.80;99.90
12602;DHT22;30282;16.436;99.370;2022-12-18T14:43:26;22.80;99.90
12602;DHT22;30282;16.436;99.370;2022-12-18T14:45:59;22.80;99.90
12602;DHT22;30282;16.436;99.370;2022-12-18T14:48:36;22.80;99.90
12602;DHT22;30282;16.436;99.370;2022-12-18T14:51:17;22.80;99.90
12602;DHT22;30282;16.436;99.370;2022-12-18T14:53:53;22.80;99.90
12602;DHT22;30282;16.436;99.370;2022-12-18T14:56:25;22.70;99.90
12602;DHT22;30282;16.436;99.370;2022-12-18T14:58:56;22.70;99.90
12602;DHT22;30282;16.436;99.370;2022-12-18T15:01:28;22.70;99.90
12602;DHT22;30282;16.436;99.370;2022-12-18T15:03:59;22.70;99.90
12602;DHT22;30282;16.436;99.370;2022-12-18T15:06:31;22.70;99.90
12602;DHT22;30282;16.436;99.370;2022-12-18T15:09:02;22.70;99.90
12602;DHT22;30282;16.436;99.370;2022-12-18T15:11:56;22.70;99.90
12602;DHT22;30282;16.436;99.370;2022-12-18T15:14:34;22.70;99.90
12602;DHT22;30282;16.436;99.370;2022-12-18T15:17:06;22.70;99.90
12602;DHT22;30282;16.436;99.370;2022-12-18T15:19:44;22.70;99.90
12602;DHT22;30282;16.436;99.370;2022-12-18T15:22:21;22.70;99.90
12602;DHT22;30282;16.436;99.370;2022-12-18T15:24:53;22.70;99.90
12602;DHT22;30282;16.436;99.370;2022-12-18T15:27:31;22.70;99.90
12602;DHT22;30282;16.436;99.370;2022-12-18T15:30:20;22.70;99.90
12602;DHT22;30282;16.436;99.370;2022-12-18T15:32:51;22.70;99.90
12602;DHT22;30282;16.436;99.370;2022-12-18T15:35:23;22.70;99.90
12602;DHT22;30282;16.436;99.370;2022-12-18T15:37:53;22.70;99.90
12602;DHT22;30282;16.436;99.370;2022-12-18T15:40:23;22.70;99.90
12602;DHT22;30282;16.436;99.370;2022-12-18T15:42:55;22.70;99.90
12602;DHT22;30282;16.436;99.370;2022-12-18T15:45:43;22.60;99.90
12602;DHT22;30282;16.436;99.370;2022-12-18T15:48:20;22.60;99.90
12602;DHT22;30282;16.436;99.370;2022-12-18T15:50:53;22.60;99.90
12602;DHT22;30282;16.436;99.370;2022-12-18T15:53:25;22.60;99.90
12602;DHT22;30282;16.436;99.370;2022-12-18T15:55:58;22.70;99.90
12602;DHT22;30282;16.436;99.370;2022-12-18T15:58:45;22.70;99.90
12602;DHT22;30282;16.436;99.370;2022-12-18T16:01:14;22.70;99.90